Time;durP1;ratioP1;P1;durP2;ratioP2;P2;SDS_P1;SDS_P2;PMS_P1;PMS_P2;Temp;Humidity;BMP_temperature;BMP_pressure;BME280_temperature;BME280_humidity;BME280_pressure;Samples;Min_cycle;Max_cycle;Signal;HPM_P1;HPM_P2
2022/08/14 00:02:03;;;;;;;6.53;0.52;;;20.50;85.30;;;;;;5035141;28;20134;-77
2022/08/14 00:04:31;;;;;;;1.55;0.75;;;20.60;84.80;;;;;;5035538;28;20056;-77
2022/08/14 00:06:56;;;;;;;2.70;1.20;;;20.70;84.60;;;;;;5034852;28;20471;-77
2022/08/14 00:09:22;;;;;;;2.33;1.20;;;20.80;84.40;;;;;;5035114;28;20163;-77
2022/08/14 00:11:48;;;;;;;3.85;1.13;;;20.80;84.50;;;;;;5016826;28;20506;-76
2022/08/14 00:14:15;;;;;;;1.45;1.00;;;21.00;84.40;;;;;;5034739;28;20429;-77
2022/08/14 00:16:41;;;;;;;1.38;0.93;;;20.90;85.00;;;;;;5034958;28;20025;-77
2022/08/14 00:19:06;;;;;;;1.05;0.98;;;20.90;84.40;;;;;;5034587;28;20025;-77
2022/08/14 00:21:32;;;;;;;3.78;1.13;;;20.80;84.60;;;;;;5034457;28;20076;-77
2022/08/14 00:23:57;;;;;;;1.58;1.00;;;20.80;84.80;;;;;;5016830;28;20383;-76
2022/08/14 00:26:23;;;;;;;3.38;1.08;;;20.90;84.80;;;;;;5017189;28;20435;-76
2022/08/14 00:28:53;;;;;;;6.85;1.30;;;20.90;84.50;;;;;;5034811;28;20029;-76
2022/08/14 00:31:19;;;;;;;3.17;1.40;;;21.00;84.00;;;;;;5034231;28;20034;-75
2022/08/14 00:33:44;;;;;;;1.95;1.08;;;21.10;83.70;;;;;;5034753;28;20049;-74
2022/08/14 00:36:10;;;;;;;4.07;1.63;;;21.20;83.40;;;;;;5034230;28;20025;-75
2022/08/14 00:38:39;;;;;;;1.77;1.23;;;21.20;83.40;;;;;;5034509;28;20025;-75
2022/08/14 00:41:05;;;;;;;;;;;21.30;83.20;;;;;;5034630;28;20021;-76
2022/08/14 00:43:33;;;;;;;4.30;1.45;;;21.30;83.10;;;;;;5034068;28;19954;-77
2022/08/14 00:46:08;;;;;;;2.17;1.05;;;21.60;83.00;;;;;;5016501;28;20021;-77
2022/08/14 00:48:35;;;;;;;5.80;1.20;;;21.60;83.00;;;;;;5016295;28;20083;-77
2022/08/14 00:51:01;;;;;;;1.30;0.90;;;21.40;82.90;;;;;;5033925;28;20025;-76
2022/08/14 00:53:27;;;;;;;3.13;1.05;;;21.40;83.10;;;;;;5016247;28;20025;-76
2022/08/14 00:55:55;;;;;;;2.80;1.38;;;21.50;83.30;;;;;;5033979;28;20105;-75
2022/08/14 00:58:30;;;;;;;2.88;1.17;;;21.30;83.30;;;;;;5034905;28;20048;-75
2022/08/14 01:01:17;;;;;;;2.85;1.70;;;21.30;83.60;;;;;;5034263;28;20040;-75
2022/08/14 01:03:43;;;;;;;2.15;1.30;;;21.30;83.80;;;;;;5016201;28;20108;-74
2022/08/14 01:06:15;;;;;;;2.78;1.67;;;21.20;84.00;;;;;;5034045;28;20029;-74
2022/08/14 01:08:42;;;;;;;2.55;1.33;;;21.20;84.50;;;;;;5033906;28;20382;-75
2022/08/14 01:11:09;;;;;;;1.60;1.30;;;21.20;84.50;;;;;;5033859;28;20088;-75
2022/08/14 01:13:39;;;;;;;4.78;1.60;;;21.20;84.60;;;;;;5015968;28;20087;-74
2022/08/14 01:16:07;;;;;;;4.30;1.10;;;21.20;84.70;;;;;;5016062;28;20029;-75
2022/08/14 01:21:38;;;;;;;1.92;1.10;;;21.20;85.10;;;;;;5033894;28;20107;-76
2022/08/14 01:24:06;;;;;;;1.65;1.38;;;21.20;85.70;;;;;;5033678;28;20029;-76
2022/08/14 01:26:34;;;;;;;4.72;1.92;;;21.20;85.70;;;;;;5016032;28;20504;-75
2022/08/14 01:29:03;;;;;;;1.73;1.35;;;21.10;86.10;;;;;;5033589;28;20025;-76
2022/08/14 01:31:32;;;;;;;3.85;1.15;;;21.10;86.50;;;;;;5033838;28;20053;-75
2022/08/14 01:34:01;;;;;;;3.92;1.60;;;21.20;86.90;;;;;;5033556;28;20021;-75
2022/08/14 01:36:27;;;;;;;;;;;21.10;87.10;;;;;;5033662;28;20032;-75
2022/08/14 01:38:57;;;;;;;3.72;1.42;;;21.10;87.30;;;;;;5033377;28;19916;-76
2022/08/14 01:41:25;;;;;;;2.55;1.40;;;21.10;87.50;;;;;;5015548;28;20479;-76
2022/08/14 01:43:59;;;;;;;3.15;1.58;;;21.10;87.70;;;;;;5033783;28;20510;-76
2022/08/14 01:46:31;;;;;;;2.95;1.73;;;21.00;88.10;;;;;;5033656;28;20471;-76
2022/08/14 01:48:57;;;;;;;2.28;1.83;;;21.10;88.30;;;;;;5033297;28;20018;-77
2022/08/14 01:51:27;;;;;;;2.28;1.67;;;21.00;88.60;;;;;;5033524;28;20021;-76
2022/08/14 01:53:55;;;;;;;4.20;1.77;;;21.00;88.90;;;;;;5033245;28;20475;-75
2022/08/14 01:56:32;;;;;;;2.10;1.70;;;20.90;89.20;;;;;;5015594;28;20021;-75
2022/08/14 01:58:58;;;;;;;4.13;1.70;;;20.90;89.80;;;;;;5015712;28;20079;-76
2022/08/14 02:01:24;;;;;;;4.75;1.85;;;20.80;89.90;;;;;;5033058;28;20017;-77
2022/08/14 02:03:49;;;;;;;3.47;1.80;;;20.70;90.10;;;;;;5017176;28;20539;-76
2022/08/14 02:06:15;;;;;;;3.33;1.92;;;20.80;90.20;;;;;;5037754;28;20074;-76
2022/08/14 02:08:41;;;;;;;2.75;2.17;;;20.70;90.30;;;;;;5037833;28;20107;-77
2022/08/14 02:11:17;;;;;;;3.45;1.48;;;20.70;90.50;;;;;;5019363;28;20033;-79
2022/08/14 02:13:58;;;;;;;2.67;1.38;;;20.60;90.70;;;;;;5019209;28;20140;-77
2022/08/14 02:16:26;;;;;;;3.45;2.13;;;20.60;90.90;;;;;;5037294;28;20021;-77
2022/08/14 02:18:54;;;;;;;2.23;2.00;;;20.60;91.00;;;;;;5036892;28;20159;-77
2022/08/14 02:21:20;;;;;;;4.68;1.60;;;20.50;91.10;;;;;;5036794;28;20075;-77
2022/08/14 02:23:49;;;;;;;1.95;1.60;;;20.50;91.30;;;;;;5036862;28;20029;-77
2022/08/14 02:26:24;;;;;;;1.70;1.48;;;20.50;91.50;;;;;;5019138;28;20018;-77
2022/08/14 02:28:52;;;;;;;1.92;1.65;;;20.40;91.70;;;;;;5019010;28;20037;-77
2022/08/14 02:31:18;;;;;;;3.40;2.42;;;20.40;91.90;;;;;;5018961;28;20517;-78
2022/08/14 02:33:44;;;;;;;4.30;1.30;;;20.40;92.00;;;;;;5036932;28;20049;-77
2022/08/14 02:36:11;;;;;;;7.00;2.15;;;20.20;92.20;;;;;;5018279;28;20406;-77
2022/08/14 02:38:37;;;;;;;2.55;1.58;;;20.20;92.50;;;;;;5036549;28;20026;-77
2022/08/14 02:41:04;;;;;;;4.20;2.08;;;20.20;92.70;;;;;;5036647;28;20032;-77
2022/08/14 02:43:31;;;;;;;4.05;2.75;;;20.20;93.00;;;;;;5018641;28;20482;-77
2022/08/14 02:45:57;;;;;;;3.80;1.90;;;20.10;93.10;;;;;;5036719;28;20021;-77
2022/08/14 02:48:31;;;;;;;4.85;2.35;;;20.10;93.30;;;;;;5018639;28;20129;-77
2022/08/14 02:50:58;;;;;;;2.65;2.30;;;20.10;93.50;;;;;;5018599;28;20071;-77
2022/08/14 02:53:24;;;;;;;3.97;1.73;;;20.00;93.70;;;;;;5018614;28;20022;-77
2022/08/14 02:55:49;;;;;;;3.70;2.13;;;19.90;94.00;;;;;;5018536;28;20074;-77
2022/08/14 02:58:16;;;;;;;3.33;2.03;;;19.90;94.20;;;;;;5036033;28;20486;-77
2022/08/14 03:00:42;;;;;;;3.65;2.20;;;19.90;94.40;;;;;;5036469;28;20021;-77
2022/08/14 03:03:07;;;;;;;2.60;1.52;;;19.80;94.70;;;;;;5036302;28;20497;-77
2022/08/14 03:05:34;;;;;;;4.90;2.40;;;19.80;94.90;;;;;;5036333;28;20028;-77
2022/08/14 03:08:12;;;;;;;2.70;1.80;;;19.70;95.10;;;;;;5035916;28;20032;-77
2022/08/14 03:10:38;;;;;;;2.85;1.98;;;19.70;95.60;;;;;;5035970;28;20022;-76
2022/08/14 03:13:04;;;;;;;6.22;2.97;;;19.70;95.80;;;;;;5035957;28;20096;-76
2022/08/14 03:15:33;;;;;;;4.60;2.75;;;19.70;96.10;;;;;;5035894;28;20064;-76
2022/08/14 03:17:58;;;;;;;3.92;2.33;;;19.60;96.30;;;;;;5035862;28;20071;-76
2022/08/14 03:20:28;;;;;;;3.05;2.28;;;19.50;96.50;;;;;;5035801;28;20029;-76
2022/08/14 03:22:58;;;;;;;3.10;2.38;;;19.50;96.80;;;;;;5035742;28;20028;-76
2022/08/14 03:25:24;;;;;;;2.85;1.90;;;19.50;97.00;;;;;;5018012;28;20394;-76
2022/08/14 03:27:50;;;;;;;6.40;2.42;;;19.50;97.30;;;;;;5035657;28;20036;-76
2022/08/14 03:30:15;;;;;;;4.95;1.92;;;19.40;97.50;;;;;;5035629;28;20029;-76
2022/08/14 03:32:42;;;;;;;3.75;2.42;;;19.40;97.80;;;;;;5035462;28;20018;-77
2022/08/14 03:35:08;;;;;;;5.82;2.33;;;19.40;98.00;;;;;;5035534;28;20425;-77
2022/08/14 03:37:33;;;;;;;6.22;2.42;;;19.30;98.30;;;;;;5017574;28;20108;-77
2022/08/14 03:39:59;;;;;;;7.10;2.40;;;19.30;98.50;;;;;;5035716;28;20118;-77
2022/08/14 03:42:25;;;;;;;5.07;2.80;;;19.20;98.70;;;;;;5017614;28;20010;-77
2022/08/14 03:44:51;;;;;;;5.07;2.70;;;19.20;98.90;;;;;;5035622;28;20024;-77
2022/08/14 03:47:16;;;;;;;4.05;2.80;;;19.20;99.20;;;;;;5035284;28;20044;-76
2022/08/14 03:49:45;;;;;;;5.40;2.92;;;19.20;99.40;;;;;;5035797;28;20025;-76
2022/08/14 03:52:12;;;;;;;4.45;2.58;;;19.00;99.80;;;;;;5035104;28;20108;-76
2022/08/14 03:54:37;;;;;;;4.00;2.63;;;19.00;99.90;;;;;;5017332;28;20423;-76
2022/08/14 03:57:04;;;;;;;4.30;2.75;;;18.90;99.90;;;;;;5017281;28;20052;-76
2022/08/14 03:59:32;;;;;;;6.38;2.55;;;18.90;99.90;;;;;;5034973;28;20509;-76
2022/08/14 04:01:58;;;;;;;;;;;18.90;99.90;;;;;;5017659;28;20018;-76
2022/08/14 04:04:24;;;;;;;5.68;3.05;;;18.90;99.90;;;;;;5035013;28;19972;-76
2022/08/14 04:06:50;;;;;;;6.13;3.00;;;18.90;99.90;;;;;;5034931;28;20478;-76
2022/08/14 04:09:16;;;;;;;3.50;2.88;;;18.90;99.90;;;;;;5034669;28;20014;-76
2022/08/14 04:11:41;;;;;;;4.03;2.90;;;18.80;99.90;;;;;;5035041;28;20029;-76
2022/08/14 04:14:07;;;;;;;2.67;2.10;;;18.80;99.90;;;;;;5034757;28;20510;-76
2022/08/14 04:16:33;;;;;;;4.30;2.80;;;18.70;99.90;;;;;;5034808;28;20021;-76
2022/08/14 04:18:59;;;;;;;4.22;2.55;;;18.60;99.90;;;;;;5034816;28;20021;-76
2022/08/14 04:21:28;;;;;;;3.60;2.95;;;18.70;99.90;;;;;;5034519;28;20017;-77
2022/08/14 04:23:56;;;;;;;6.70;2.80;;;18.70;99.90;;;;;;5035211;28;20028;-77
2022/08/14 04:26:23;;;;;;;;;;;18.60;99.90;;;;;;5034482;28;20022;-77
2022/08/14 04:28:49;;;;;;;5.80;3.10;;;18.60;99.90;;;;;;5034560;28;20274;-77
2022/08/14 04:31:16;;;;;;;4.20;2.67;;;18.60;99.90;;;;;;5016556;28;20026;-78
2022/08/14 04:33:42;;;;;;;5.65;2.55;;;18.60;99.90;;;;;;5034732;28;20057;-77
2022/08/14 04:36:08;;;;;;;13.57;2.70;;;18.70;99.90;;;;;;5034370;28;20072;-77
2022/08/14 04:44:03;;;;;;;4.28;3.25;;;18.60;99.90;;;;;;5034762;28;20386;-77
2022/08/14 04:46:32;;;;;;;4.13;3.20;;;18.50;99.90;;;;;;5016409;28;20038;-77
2022/08/14 04:48:58;;;;;;;3.92;3.13;;;18.50;99.90;;;;;;5016384;28;20017;-78
2022/08/14 04:51:27;;;;;;;4.53;3.28;;;18.50;99.90;;;;;;5034124;28;20116;-77
2022/08/14 04:53:53;;;;;;;5.00;2.55;;;18.60;99.90;;;;;;5034051;28;20104;-76
2022/08/14 04:56:22;;;;;;;5.13;3.13;;;18.60;99.90;;;;;;5034110;28;20035;-76
2022/08/14 04:58:56;;;;;;;5.07;2.88;;;18.80;99.90;;;;;;5034155;28;20419;-76
2022/08/14 05:01:24;;;;;;;6.88;3.33;;;18.60;99.90;;;;;;5016069;28;20021;-76
2022/08/14 05:03:49;;;;;;;6.40;2.83;;;18.60;99.90;;;;;;5016187;28;20028;-76
2022/08/14 05:06:15;;;;;;;6.32;2.92;;;18.70;99.90;;;;;;5033837;28;20459;-76
2022/08/14 05:08:42;;;;;;;4.22;3.03;;;18.70;99.90;;;;;;5016166;28;20464;-77
2022/08/14 05:11:09;;;;;;;6.75;3.30;;;18.80;99.90;;;;;;5033712;28;20032;-77
2022/08/14 05:13:36;;;;;;;4.13;3.28;;;18.80;99.90;;;;;;5033647;28;20033;-77
2022/08/14 05:16:04;;;;;;;7.68;3.50;;;18.90;99.90;;;;;;5016163;28;20546;-76
2022/08/14 05:18:33;;;;;;;5.00;3.38;;;19.00;99.90;;;;;;5033514;28;20490;-76
2022/08/14 05:21:01;;;;;;;4.13;2.88;;;19.10;99.90;;;;;;5033691;28;20075;-76
2022/08/14 05:23:30;;;;;;;4.93;3.78;;;19.10;99.90;;;;;;5033680;28;20116;-76
2022/08/14 05:26:02;;;;;;;3.67;3.00;;;19.20;99.90;;;;;;5033575;28;20020;-77
2022/08/14 05:28:30;;;;;;;5.15;3.55;;;19.40;99.90;;;;;;5033685;28;20022;-77
2022/08/14 05:31:00;;;;;;;6.60;3.53;;;19.40;99.90;;;;;;5033765;28;20390;-77
2022/08/14 05:33:29;;;;;;;5.97;3.22;;;19.50;99.90;;;;;;5015740;28;20403;-76
2022/08/14 05:35:59;;;;;;;5.25;3.25;;;19.60;99.90;;;;;;5033647;28;20491;-76
2022/08/14 05:38:36;;;;;;;4.18;3.15;;;19.70;99.90;;;;;;5015045;28;20022;-76
2022/08/14 05:41:07;;;;;;;7.20;3.45;;;19.80;99.90;;;;;;5033506;28;20025;-76
2022/08/14 05:43:33;;;;;;;5.13;3.10;;;19.90;99.90;;;;;;5015932;28;20021;-76
2022/08/14 05:46:00;;;;;;;5.30;3.60;;;20.00;99.90;;;;;;5015440;28;20049;-76
2022/08/14 05:48:27;;;;;;;5.07;3.05;;;20.10;99.90;;;;;;5033385;28;20014;-76
2022/08/14 05:50:54;;;;;;;3.90;2.97;;;20.20;99.90;;;;;;5033115;28;20021;-76
2022/08/14 05:53:24;;;;;;;4.43;2.85;;;20.30;99.90;;;;;;5033038;28;20025;-76
2022/08/14 05:55:51;;;;;;;3.70;2.75;;;20.40;99.90;;;;;;5033167;28;20040;-76
2022/08/14 05:58:21;;;;;;;8.52;3.60;;;20.50;99.90;;;;;;5032932;28;20026;-76
2022/08/14 06:00:48;;;;;;;4.05;2.85;;;20.50;99.90;;;;;;5015468;28;20116;-76
2022/08/14 06:03:19;;;;;;;4.10;3.17;;;20.60;99.90;;;;;;5033068;28;20097;-75
2022/08/14 06:05:47;;;;;;;4.90;3.25;;;20.70;99.90;;;;;;5015251;28;20026;-76
2022/08/14 06:08:27;;;;;;;4.50;3.45;;;20.70;99.90;;;;;;5033384;28;20021;-76
2022/08/14 06:10:56;;;;;;;5.38;3.10;;;20.80;99.90;;;;;;5015356;28;20029;-76
2022/08/14 06:13:22;;;;;;;5.97;2.88;;;21.00;99.90;;;;;;5032851;28;20033;-75
2022/08/14 06:15:49;;;;;;;4.32;2.85;;;21.10;99.90;;;;;;5015278;28;20031;-75
2022/08/14 06:18:16;;;;;;;4.38;3.38;;;21.30;99.90;;;;;;5033275;28;20025;-76
2022/08/14 06:20:42;;;;;;;3.75;3.03;;;21.40;99.90;;;;;;5032928;28;20105;-76
2022/08/14 06:23:08;;;;;;;4.65;2.58;;;21.50;99.90;;;;;;5032843;28;20017;-75
2022/08/14 06:25:33;;;;;;;3.22;2.50;;;21.70;99.90;;;;;;5032878;28;20097;-76
2022/08/14 06:27:59;;;;;;;4.20;2.88;;;21.80;99.90;;;;;;5033904;28;20104;-76
2022/08/14 06:30:29;;;;;;;4.40;2.97;;;21.90;99.90;;;;;;5032807;28;20532;-76
2022/08/14 06:32:55;;;;;;;9.05;2.95;;;22.20;99.90;;;;;;5032624;28;20478;-76
2022/08/14 06:35:21;;;;;;;4.97;2.70;;;22.20;99.60;;;;;;5032638;28;20080;-75
2022/08/14 06:37:51;;;;;;;4.45;3.00;;;22.30;99.30;;;;;;5015623;28;20463;-75
2022/08/14 06:40:25;;;;;;;4.43;2.72;;;22.50;98.80;;;;;;5015114;28;20467;-75
2022/08/14 06:42:52;;;;;;;4.25;2.80;;;22.60;98.50;;;;;;5032984;28;20459;-75
2022/08/14 06:45:18;;;;;;;6.57;2.63;;;22.70;98.40;;;;;;5032931;28;20041;-75
2022/08/14 06:47:45;;;;;;;5.03;2.78;;;22.80;98.10;;;;;;5032972;28;20458;-76
2022/08/14 06:50:16;;;;;;;4.32;3.13;;;22.90;97.90;;;;;;5034803;28;20095;-76
2022/08/14 06:52:42;;;;;;;2.92;2.30;;;23.00;97.60;;;;;;5018369;28;20036;-76
2022/08/14 06:55:10;;;;;;;3.95;2.05;;;23.20;97.30;;;;;;5018427;28;20079;-76
2022/08/14 06:57:40;;;;;;;4.80;2.70;;;23.40;96.90;;;;;;5036150;28;20033;-76
2022/08/14 07:00:12;;;;;;;3.50;2.15;;;23.50;96.50;;;;;;5018431;28;20026;-77
2022/08/14 07:08:25;;;;;;;2.58;2.38;;;24.00;95.10;;;;;;5036139;28;20517;-76
2022/08/14 07:10:53;;;;;;;2.20;2.00;;;24.20;94.30;;;;;;5036092;28;20379;-76
2022/08/14 07:13:20;;;;;;;6.38;3.05;;;24.20;94.10;;;;;;5032701;22;20029;-76
2022/08/14 07:15:49;;;;;;;2.38;2.17;;;24.40;94.30;;;;;;5055892;28;20408;-77
2022/08/14 07:18:22;;;;;;;3.22;2.38;;;24.50;93.60;;;;;;5037796;28;20029;-77
2022/08/14 07:20:47;;;;;;;3.58;1.67;;;24.70;93.30;;;;;;5055857;28;20049;-77
2022/08/14 07:23:13;;;;;;;6.15;2.20;;;24.80;93.00;;;;;;5055789;28;20526;-76
2022/08/14 07:25:41;;;;;;;9.38;2.45;;;24.90;92.40;;;;;;5037785;28;20092;-76
2022/08/14 07:28:12;;;;;;;6.38;2.63;;;25.00;91.90;;;;;;5055692;28;20470;-76
2022/08/14 07:30:39;;;;;;;4.63;2.00;;;25.10;91.80;;;;;;5055894;28;20071;-76
2022/08/14 07:33:05;;;;;;;6.50;2.58;;;25.20;91.60;;;;;;5055483;28;20389;-76
2022/08/14 07:35:32;;;;;;;2.72;2.50;;;25.30;91.10;;;;;;5037866;28;20061;-76
2022/08/14 07:37:58;;;;;;;3.53;2.10;;;25.40;91.00;;;;;;5037473;28;20025;-76
2022/08/14 07:40:23;;;;;;;5.50;2.03;;;25.40;91.00;;;;;;5055769;28;20070;-77
2022/08/14 07:42:49;;;;;;;3.00;2.00;;;25.60;90.70;;;;;;5055282;28;20443;-76
2022/08/14 07:45:14;;;;;;;3.17;2.30;;;25.70;90.30;;;;;;5055653;28;20029;-76
2022/08/14 07:47:41;;;;;;;3.72;1.98;;;25.90;89.30;;;;;;5055693;28;20504;-77
2022/08/14 07:50:15;;;;;;;2.90;1.80;;;26.00;88.90;;;;;;5055299;28;20096;-76
2022/08/14 07:52:43;;;;;;;3.15;1.98;;;26.10;88.10;;;;;;5055291;28;20041;-75
2022/08/14 07:55:11;;;;;;;2.17;1.93;;;26.20;87.30;;;;;;5055385;28;20028;-75
2022/08/14 07:57:42;;;;;;;4.85;2.17;;;26.30;86.40;;;;;;5055182;28;20413;-74
2022/08/14 08:00:11;;;;;;;2.10;1.90;;;26.40;85.90;;;;;;5055187;28;20071;-74
2022/08/14 08:02:43;;;;;;;3.05;2.35;;;26.50;86.10;;;;;;5036217;28;20025;-74
2022/08/14 08:05:10;;;;;;;2.38;1.77;;;26.70;86.20;;;;;;5037140;28;20393;-74
2022/08/14 08:07:38;;;;;;;3.25;1.60;;;26.70;84.70;;;;;;5054954;28;20025;-74
2022/08/14 08:12:55;;;;;;;5.63;2.05;;;27.00;83.40;;;;;;5055080;28;20091;-74
2022/08/14 08:15:23;;;;;;;3.78;1.63;;;27.00;81.80;;;;;;5036834;28;20032;-75
2022/08/14 08:17:50;;;;;;;1.80;1.55;;;27.00;80.70;;;;;;5036739;28;20046;-74
2022/08/14 08:20:25;;;;;;;1.63;1.48;;;27.10;79.60;;;;;;5037245;28;20025;-74
2022/08/14 08:22:51;;;;;;;2.08;1.67;;;27.10;79.70;;;;;;5054872;28;20049;-74
2022/08/14 08:25:17;;;;;;;3.17;1.65;;;27.20;79.30;;;;;;5036633;28;20078;-74
2022/08/14 08:27:54;;;;;;;9.65;1.88;;;27.40;77.90;;;;;;5036762;28;20150;-74
2022/08/14 08:30:20;;;;;;;7.22;1.83;;;27.40;78.60;;;;;;5036656;28;20055;-74
2022/08/14 08:32:46;;;;;;;4.55;1.75;;;27.60;78.50;;;;;;5054493;28;20466;-74
2022/08/14 08:35:24;;;;;;;7.63;1.80;;;27.80;77.40;;;;;;5054304;28;20059;-74
2022/08/14 08:37:51;;;;;;;3.08;1.55;;;27.90;77.10;;;;;;5054541;28;20474;-74
2022/08/14 08:40:30;;;;;;;3.33;2.50;;;28.10;76.10;;;;;;5054262;28;20544;-75
2022/08/14 08:42:59;;;;;;;6.10;1.67;;;28.10;76.00;;;;;;5053918;28;20013;-74
2022/08/14 08:45:24;;;;;;;2.67;1.98;;;28.30;76.40;;;;;;5054332;28;20136;-74
2022/08/14 08:47:50;;;;;;;2.70;1.95;;;28.40;74.80;;;;;;5053991;28;20104;-74
2022/08/14 08:50:38;;;;;;;2.22;1.73;;;29.70;75.50;;;;;;5054253;28;20040;-74
2022/08/14 08:53:06;;;;;;;4.00;1.60;;;28.50;74.80;;;;;;5036044;28;20112;-74
2022/08/14 08:55:33;;;;;;;;;;;28.70;74.30;;;;;;5053849;28;20117;-75
2022/08/14 08:58:03;;;;;;;4.10;1.73;;;28.80;72.40;;;;;;5052420;28;19959;-74
2022/08/14 09:00:32;;;;;;;2.55;1.60;;;28.90;72.50;;;;;;5053585;28;20025;-74
2022/08/14 09:03:10;;;;;;;3.45;1.63;;;29.00;71.70;;;;;;5052352;28;20028;-75
2022/08/14 09:05:38;;;;;;;3.92;1.83;;;29.10;70.50;;;;;;5053395;28;20032;-75
2022/08/14 09:08:28;;;;;;;3.03;1.63;;;29.10;70.80;;;;;;5035767;28;20028;-74
2022/08/14 09:10:55;;;;;;;2.00;1.67;;;29.20;70.80;;;;;;5053621;28;20128;-74
2022/08/14 09:13:24;;;;;;;3.22;1.42;;;29.40;70.70;;;;;;5053395;28;20032;-75
2022/08/14 09:15:50;;;;;;;6.18;2.08;;;29.50;69.10;;;;;;5053415;28;20537;-75
2022/08/14 09:18:18;;;;;;;1.65;1.55;;;29.20;69.10;;;;;;5053738;28;20020;-75
2022/08/14 09:20:46;;;;;;;1.48;1.38;;;29.70;67.50;;;;;;5053303;28;20397;-75
2022/08/14 09:23:13;;;;;;;2.55;1.65;;;29.80;66.60;;;;;;5035141;28;20021;-75
2022/08/14 09:25:43;;;;;;;3.13;1.40;;;29.90;66.10;;;;;;5053479;28;20017;-75
2022/08/14 09:28:10;;;;;;;1.25;1.15;;;29.90;65.40;;;;;;5052513;28;20021;-76
2022/08/14 09:30:39;;;;;;;5.57;1.67;;;30.00;64.40;;;;;;5053068;28;20033;-75
2022/08/14 09:33:26;;;;;;;7.35;1.30;;;30.10;64.60;;;;;;5053272;28;20115;-73
2022/08/14 09:36:10;;;;;;;5.27;1.53;;;30.20;62.90;;;;;;5055048;28;20029;-74
2022/08/14 09:39:03;;;;;;;9.25;1.67;;;30.30;62.50;;;;;;5054039;28;20275;-74
2022/08/14 09:41:34;;;;;;;2.65;1.77;;;30.40;62.40;;;;;;5053110;28;20078;-74
2022/08/14 09:44:07;;;;;;;1.33;1.05;;;30.40;61.30;;;;;;5035548;28;20021;-75
2022/08/14 09:46:34;;;;;;;1.73;1.15;;;30.40;60.90;;;;;;5036423;28;20029;-75
2022/08/14 09:49:04;;;;;;;4.35;0.60;;;30.60;61.40;;;;;;5036628;28;20371;-75
2022/08/14 09:51:31;;;;;;;0.60;0.40;;;30.70;60.00;;;;;;5035600;28;20027;-77
2022/08/14 09:54:10;;;;;;;0.47;0.40;;;30.80;58.20;;;;;;5053554;28;20032;-75
2022/08/14 09:56:44;;;;;;;1.98;0.35;;;30.90;56.20;;;;;;5053344;28;20374;-74
2022/08/14 09:59:13;;;;;;;2.10;0.60;;;31.00;57.60;;;;;;5053092;28;20021;-71
2022/08/14 10:01:39;;;;;;;0.52;0.52;;;31.00;57.00;;;;;;5053210;28;20100;-74
2022/08/14 10:04:24;;;;;;;3.10;0.50;;;31.20;56.80;;;;;;5053208;28;20446;-76
2022/08/14 10:06:50;;;;;;;1.30;0.43;;;31.30;54.40;;;;;;5053146;28;20025;-77
2022/08/14 10:09:17;;;;;;;1.77;0.50;;;31.50;53.70;;;;;;5035507;28;20032;-77
2022/08/14 10:11:57;;;;;;;2.25;0.40;;;31.50;54.00;;;;;;5053026;28;20056;-75
2022/08/14 10:14:31;;;;;;;8.18;0.75;;;31.50;53.60;;;;;;5035185;28;20484;-76
2022/08/14 10:16:57;;;;;;;2.08;0.32;;;31.60;53.50;;;;;;5053242;28;20084;-76
2022/08/14 10:19:26;;;;;;;1.77;0.45;;;31.80;53.10;;;;;;5035028;28;20021;-78
2022/08/14 10:22:01;;;;;;;0.90;0.40;;;31.90;53.10;;;;;;5052747;28;20029;-76
2022/08/14 10:24:32;;;;;;;0.73;0.22;;;32.10;52.50;;;;;;5036233;28;20028;-77
2022/08/14 10:27:00;;;;;;;2.33;0.40;;;32.20;51.80;;;;;;5057409;28;20020;-76
2022/08/14 10:29:39;;;;;;;1.88;1.00;;;32.30;51.70;;;;;;5056745;28;20017;-76
2022/08/14 10:32:09;;;;;;;3.03;0.82;;;32.30;51.80;;;;;;5056662;28;20382;-75
2022/08/14 10:34:38;;;;;;;1.73;0.45;;;32.50;50.20;;;;;;5039577;28;20032;-78
2022/08/14 10:37:11;;;;;;;1.60;0.60;;;32.50;50.90;;;;;;5056822;28;20150;-75
2022/08/14 10:39:42;;;;;;;0.93;0.20;;;32.70;51.20;;;;;;5056960;28;20086;-75
2022/08/14 10:42:10;;;;;;;2.28;0.52;;;32.80;49.70;;;;;;5056562;28;20029;-75
2022/08/14 10:44:38;;;;;;;2.88;0.40;;;32.80;49.60;;;;;;5056484;28;20024;-76
2022/08/14 10:47:10;;;;;;;;;;;32.90;49.20;;;;;;5038998;28;20478;-76
2022/08/14 10:49:48;;;;;;;0.75;0.30;;;32.90;49.40;;;;;;5056428;28;19911;-74
2022/08/14 10:52:20;;;;;;;1.48;0.70;;;33.20;49.80;;;;;;5056261;28;20120;-77
2022/08/14 10:54:47;;;;;;;2.40;0.50;;;33.30;48.80;;;;;;5056727;28;20482;-77
2022/08/14 10:57:17;;;;;;;0.93;0.50;;;33.30;48.60;;;;;;5056433;28;20031;-77
2022/08/14 10:59:59;;;;;;;1.70;0.52;;;33.40;49.40;;;;;;5056139;28;20017;-74
2022/08/14 11:02:28;;;;;;;1.75;0.38;;;33.60;49.00;;;;;;5056394;28;20033;-74
2022/08/14 11:05:10;;;;;;;1.05;0.50;;;33.70;48.00;;;;;;5056386;28;20409;-74
2022/08/14 11:07:38;;;;;;;0.90;0.90;;;33.60;46.60;;;;;;5056725;28;20508;-74
2022/08/14 11:10:11;;;;;;;0.80;0.63;;;33.60;48.20;;;;;;5038128;28;20075;-75
2022/08/14 11:12:56;;;;;;;0.68;0.68;;;33.90;48.90;;;;;;5038379;28;20402;-75
2022/08/14 11:15:25;;;;;;;1.13;0.52;;;34.10;49.40;;;;;;5038678;28;20037;-75
2022/08/14 11:17:51;;;;;;;1.02;0.55;;;34.20;48.90;;;;;;5037822;28;20515;-77
2022/08/14 11:20:22;;;;;;;1.33;0.90;;;34.30;48.40;;;;;;5036289;28;20052;-75
2022/08/14 11:22:51;;;;;;;1.02;0.60;;;34.40;47.10;;;;;;5058058;28;20021;-74
2022/08/14 11:25:19;;;;;;;1.38;0.98;;;34.50;47.20;;;;;;5054682;28;20473;-75
2022/08/14 11:27:45;;;;;;;1.35;0.65;;;34.70;47.10;;;;;;5055988;28;20049;-75
2022/08/14 11:30:19;;;;;;;0.45;0.40;;;34.70;46.80;;;;;;5055714;28;20043;-75
2022/08/14 11:32:49;;;;;;;0.60;0.60;;;34.80;46.30;;;;;;5055540;28;20490;-75
2022/08/14 11:35:20;;;;;;;0.50;0.50;;;35.10;47.30;;;;;;5037173;28;20029;-75
2022/08/14 11:37:58;;;;;;;1.13;0.57;;;35.20;45.90;;;;;;5036930;28;20032;-76
2022/08/14 11:40:26;;;;;;;2.22;0.60;;;35.20;45.90;;;;;;5037637;28;20063;-75
2022/08/14 11:42:54;;;;;;;;;;;35.20;44.70;;;;;;5055714;28;20040;-75
2022/08/14 11:45:22;;;;;;;2.15;0.57;;;34.90;45.00;;;;;;5055455;28;19984;-76
2022/08/14 11:47:47;;;;;;;;;;;34.60;45.90;;;;;;5055937;28;20470;-75
2022/08/14 11:50:26;;;;;;;2.38;0.35;;;34.80;46.40;;;;;;5055196;28;19912;-74
2022/08/14 11:52:56;;;;;;;0.40;0.20;;;34.90;44.40;;;;;;5037155;28;20120;-76
2022/08/14 11:55:25;;;;;;;0.45;0.20;;;35.20;43.00;;;;;;5055125;28;20055;-75
2022/08/14 11:58:02;;;;;;;0.50;0.28;;;35.50;42.30;;;;;;5055396;28;20025;-75
2022/08/14 12:00:29;;;;;;;1.45;0.20;;;35.60;42.30;;;;;;5037035;28;20108;-74
2022/08/14 12:02:57;;;;;;;0.10;0.00;;;36.00;42.80;;;;;;5054834;28;20035;-74
2022/08/14 12:05:38;;;;;;;1.02;0.00;;;36.10;38.50;;;;;;5054902;28;20107;-74
2022/08/14 12:08:06;;;;;;;0.57;0.03;;;35.90;39.70;;;;;;5055212;28;20068;-74
2022/08/14 12:10:33;;;;;;;;;;;36.20;39.60;;;;;;5055188;28;20025;-74
2022/08/14 12:13:08;;;;;;;0.37;0.17;;;36.40;39.40;;;;;;5054937;28;19904;-77
2022/08/14 12:15:34;;;;;;;3.45;0.40;;;36.70;40.20;;;;;;5055029;28;20033;-74
2022/08/14 12:18:01;;;;;;;1.25;0.00;;;37.10;39.40;;;;;;5054635;28;20028;-74
2022/08/14 12:20:32;;;;;;;2.63;0.25;;;37.40;39.70;;;;;;5054887;28;20092;-74
2022/08/14 12:22:59;;;;;;;0.32;0.17;;;37.60;38.10;;;;;;5053669;28;20028;-75
2022/08/14 12:25:26;;;;;;;2.47;0.10;;;37.80;39.60;;;;;;5056549;28;20082;-74
2022/08/14 12:27:54;;;;;;;0.32;0.20;;;37.90;38.30;;;;;;5050173;28;20033;-75
2022/08/14 12:30:37;;;;;;;0.50;0.28;;;38.10;38.80;;;;;;5034905;28;20029;-74
2022/08/14 12:33:04;;;;;;;0.43;0.22;;;38.20;37.60;;;;;;5053979;28;20083;-74
2022/08/14 12:35:37;;;;;;;0.73;0.20;;;38.30;37.70;;;;;;5054121;28;20090;-74
2022/08/14 12:38:03;;;;;;;0.52;0.17;;;38.20;38.20;;;;;;5036274;28;20486;-74
2022/08/14 12:40:30;;;;;;;1.65;0.30;;;38.10;37.50;;;;;;5054232;28;20075;-74
2022/08/14 12:43:02;;;;;;;2.10;0.10;;;38.30;37.60;;;;;;5054124;28;20035;-74
2022/08/14 12:45:32;;;;;;;2.28;0.10;;;38.50;36.90;;;;;;5054094;28;20048;-74
2022/08/14 12:48:02;;;;;;;0.25;0.20;;;38.70;36.60;;;;;;5053699;28;20037;-74
2022/08/14 12:50:41;;;;;;;0.20;0.10;;;38.70;36.60;;;;;;5036165;28;20060;-74
2022/08/14 12:53:11;;;;;;;0.30;0.10;;;38.90;36.60;;;;;;5054006;28;20029;-74
2022/08/14 12:55:38;;;;;;;0.85;0.17;;;38.80;37.00;;;;;;5054004;28;20029;-74
2022/08/14 12:58:04;;;;;;;0.53;0.17;;;38.90;37.60;;;;;;5054425;28;20084;-74
2022/08/14 13:00:33;;;;;;;0.30;0.30;;;38.80;37.20;;;;;;5053938;28;20407;-74
2022/08/14 13:03:00;;;;;;;4.65;0.75;;;38.50;37.20;;;;;;5054089;28;20009;-74
2022/08/14 13:05:29;;;;;;;1.98;0.10;;;38.10;38.10;;;;;;5053786;28;20025;-74
2022/08/14 13:07:56;;;;;;;0.20;0.20;;;37.70;37.70;;;;;;5053973;28;20025;-74
2022/08/14 13:10:22;;;;;;;1.42;0.20;;;37.40;39.10;;;;;;5053970;28;20482;-74
2022/08/14 13:12:50;;;;;;;5.10;0.30;;;37.10;39.40;;;;;;5053671;28;20067;-74
2022/08/14 13:15:17;;;;;;;2.03;0.32;;;36.90;38.30;;;;;;5035767;28;20505;-74